createdAt,value
2017-12-08T00:00:00.167Z,68.00
2017-12-08T00:02:33.452Z,67.80
2017-12-08T00:05:06.073Z,67.80
2017-12-08T00:07:38.640Z,67.80
2017-12-08T00:10:11.009Z,67.40
2017-12-08T00:12:43.779Z,67.20
2017-12-08T00:15:17.054Z,67.20
2017-12-08T00:17:49.600Z,67.00
2017-12-08T00:20:22.172Z,66.70
2017-12-08T00:22:54.568Z,66.30
2017-12-08T00:25:27.175Z,66.60
2017-12-08T00:27:59.833Z,66.60
2017-12-08T00:30:33.705Z,66.20
2017-12-08T00:33:06.260Z,66.30
2017-12-08T00:35:40.284Z,66.50
2017-12-08T00:38:13.263Z,66.40
2017-12-08T00:40:45.848Z,66.30
2017-12-08T00:43:18.426Z,65.70
2017-12-08T00:45:52.525Z,65.80
2017-12-08T00:48:25.225Z,65.80
2017-12-08T00:50:58.474Z,66.10
2017-12-08T00:53:31.305Z,66.10
2017-12-08T00:56:03.947Z,66.20
2017-12-08T00:58:36.447Z,65.70
2017-12-08T01:01:08.909Z,66.20
2017-12-08T01:03:41.535Z,66.20
2017-12-08T01:06:14.575Z,65.60
2017-12-08T01:08:46.938Z,64.90
2017-12-08T01:11:20.187Z,64.60
2017-12-08T01:13:52.684Z,64.30
2017-12-08T01:16:24.982Z,64.30
2017-12-08T01:18:57.650Z,64.60
2017-12-08T01:21:30.325Z,64.70
2017-12-08T01:24:03.622Z,64.40
2017-12-08T01:26:36.025Z,62.50
2017-12-08T01:29:08.660Z,61.40
2017-12-08T01:31:41.974Z,61.00
2017-12-08T01:34:14.437Z,61.30
2017-12-08T01:36:46.870Z,61.60
2017-12-08T01:39:20.704Z,59.60
2017-12-08T01:41:53.777Z,59.60
2017-12-08T01:44:26.701Z,59.60
2017-12-08T01:46:59.337Z,58.90
2017-12-08T01:49:32.097Z,59.20
2017-12-08T01:52:04.809Z,59.70
2017-12-08T01:54:37.192Z,59.80
2017-12-08T01:57:10.657Z,59.80
2017-12-08T01:59:44.208Z,59.80
2017-12-08T02:02:17.170Z,59.80
2017-12-08T02:04:49.868Z,60.40
2017-12-08T02:07:22.254Z,61.00
2017-12-08T02:09:54.944Z,60.70
2017-12-08T02:12:28.377Z,59.50
2017-12-08T02:15:01.074Z,59.50
2017-12-08T02:17:33.636Z,59.90
2017-12-08T02:20:07.756Z,59.40
2017-12-08T02:22:40.668Z,59.40
2017-12-08T02:25:13.798Z,59.40
2017-12-08T02:27:47.689Z,59.10
2017-12-08T02:30:20.846Z,58.00
2017-12-08T02:32:53.636Z,58.00
2017-12-08T02:35:26.978Z,58.00
2017-12-08T02:37:59.658Z,57.00
2017-12-08T02:40:32.119Z,56.60
2017-12-08T02:43:04.849Z,57.00
2017-12-08T02:45:37.359Z,57.00
2017-12-08T02:48:10.510Z,56.40
2017-12-08T02:50:43.246Z,56.40
2017-12-08T02:53:15.970Z,55.80
2017-12-08T02:55:50.070Z,55.70
2017-12-08T02:58:22.823Z,55.60
2017-12-08T03:00:55.324Z,55.60
2017-12-08T03:03:28.895Z,55.90
2017-12-08T03:06:02.800Z,55.20
2017-12-08T03:08:35.585Z,55.10
2017-12-08T03:11:08.042Z,55.00
2017-12-08T03:13:40.599Z,55.30
2017-12-08T03:16:13.202Z,55.40
2017-12-08T03:18:45.756Z,55.80
2017-12-08T03:21:18.379Z,55.70
2017-12-08T03:23:51.015Z,55.50
2017-12-08T03:26:23.434Z,55.30
2017-12-08T03:28:55.834Z,55.30
2017-12-08T03:31:28.349Z,55.30
2017-12-08T03:34:01.794Z,55.50
2017-12-08T03:36:34.505Z,55.40
2017-12-08T03:39:06.934Z,55.60
2017-12-08T03:41:39.482Z,55.60
2017-12-08T03:44:12.352Z,55.40
2017-12-08T03:46:45.643Z,55.70
2017-12-08T03:49:18.230Z,56.20
2017-12-08T03:51:51.627Z,56.60
2017-12-08T03:54:24.246Z,56.50
2017-12-08T03:56:56.923Z,56.10
2017-12-08T03:59:29.657Z,55.80
2017-12-08T04:02:02.943Z,56.20
2017-12-08T04:04:35.510Z,56.20
2017-12-08T04:07:08.736Z,56.70
2017-12-08T04:09:41.720Z,57.80
2017-12-08T04:12:14.318Z,58.10
2017-12-08T04:14:47.824Z,58.90
2017-12-08T04:17:20.596Z,58.90
2017-12-08T04:19:53.263Z,59.20
2017-12-08T04:22:25.949Z,59.50
2017-12-08T04:24:58.524Z,60.00
2017-12-08T04:27:31.855Z,61.30
2017-12-08T04:30:04.592Z,61.20
2017-12-08T04:32:37.038Z,61.30
2017-12-08T04:35:09.749Z,61.30
2017-12-08T04:37:42.204Z,61.50
2017-12-08T04:40:15.640Z,62.20
2017-12-08T04:42:48.430Z,62.20
2017-12-08T04:45:20.909Z,62.10
2017-12-08T04:47:54.231Z,62.60
2017-12-08T04:50:27.530Z,63.50
2017-12-08T04:53:00.922Z,64.20
2017-12-08T04:55:33.806Z,64.20
2017-12-08T04:58:06.998Z,65.40
2017-12-08T05:00:40.388Z,66.00
2017-12-08T05:03:13.748Z,66.80
2017-12-08T05:05:46.308Z,67.70
2017-12-08T05:08:18.807Z,67.40
2017-12-08T05:10:52.253Z,68.50
2017-12-08T05:13:25.073Z,68.40
2017-12-08T05:15:58.027Z,68.90
2017-12-08T05:18:31.000Z,70.30
2017-12-08T05:21:03.523Z,71.30
2017-12-08T05:23:37.672Z,72.60
2017-12-08T05:26:10.484Z,72.50
2017-12-08T05:28:43.955Z,74.00
2017-12-08T05:31:17.044Z,74.00
2017-12-08T05:33:49.664Z,74.50
2017-12-08T05:36:23.131Z,75.70
2017-12-08T05:38:56.846Z,76.00
2017-12-08T05:41:29.870Z,76.60
2017-12-08T05:44:03.235Z,76.50
2017-12-08T05:46:36.625Z,77.00
2017-12-08T05:49:09.008Z,77.30
2017-12-08T05:51:41.585Z,77.90
2017-12-08T05:54:14.101Z,78.30
2017-12-08T05:56:47.577Z,80.10
2017-12-08T05:59:20.114Z,79.40
2017-12-08T06:01:52.596Z,79.80
2017-12-08T06:04:25.668Z,80.70
2017-12-08T06:06:58.576Z,80.80
2017-12-08T06:09:31.918Z,81.30
2017-12-08T06:12:04.396Z,81.60
2017-12-08T06:14:36.798Z,81.90
2017-12-08T06:17:10.040Z,82.40
2017-12-08T06:19:43.604Z,82.80
2017-12-08T06:22:16.337Z,82.50
2017-12-08T06:24:48.852Z,82.60
2017-12-08T06:27:22.235Z,82.40
2017-12-08T06:29:55.418Z,82.40
2017-12-08T06:32:28.850Z,82.40
2017-12-08T06:35:02.904Z,82.60
2017-12-08T06:37:36.425Z,83.20
2017-12-08T06:40:09.246Z,82.60
2017-12-08T06:42:42.478Z,82.80
2017-12-08T06:45:15.438Z,82.70
2017-12-08T06:47:47.791Z,82.90
2017-12-08T06:50:20.538Z,82.90
2017-12-08T06:52:53.085Z,83.10
2017-12-08T06:55:25.646Z,83.50
2017-12-08T06:57:58.190Z,83.70
2017-12-08T07:00:30.648Z,83.60
2017-12-08T07:03:03.262Z,83.70
2017-12-08T07:05:35.793Z,83.60
2017-12-08T07:08:08.390Z,83.60
2017-12-08T07:10:41.033Z,83.60
2017-12-08T07:13:13.430Z,83.80
2017-12-08T07:15:46.979Z,83.90
2017-12-08T07:18:20.121Z,83.90
2017-12-08T07:20:52.654Z,83.90
2017-12-08T07:23:25.885Z,84.50
2017-12-08T07:25:58.666Z,84.70
2017-12-08T07:28:31.093Z,85.30
2017-12-08T07:31:04.326Z,84.90
2017-12-08T07:33:36.933Z,84.90
2017-12-08T07:36:09.489Z,84.80
2017-12-08T07:38:42.468Z,85.50
2017-12-08T07:41:15.990Z,84.60
2017-12-08T07:43:49.152Z,84.60
2017-12-08T07:46:22.020Z,84.30
2017-12-08T07:48:55.291Z,84.30
2017-12-08T07:51:27.873Z,84.30
2017-12-08T07:54:01.314Z,84.00
2017-12-08T07:56:34.069Z,84.00
2017-12-08T07:59:06.592Z,83.90
2017-12-08T08:01:39.201Z,84.10
2017-12-08T08:04:12.587Z,84.40
2017-12-08T08:06:45.294Z,84.20
2017-12-08T08:09:17.681Z,83.60
2017-12-08T08:11:50.303Z,83.80
2017-12-08T08:14:22.843Z,84.00
2017-12-08T08:16:56.156Z,83.90
2017-12-08T08:19:29.606Z,84.30
2017-12-08T08:22:02.233Z,84.20
2017-12-08T08:24:34.917Z,84.10
2017-12-08T08:27:07.489Z,84.00
2017-12-08T08:29:39.903Z,84.00
2017-12-08T08:32:12.604Z,83.80
2017-12-08T08:34:45.087Z,83.80
2017-12-08T08:37:18.433Z,83.70
2017-12-08T08:39:51.228Z,83.60
2017-12-08T08:42:24.013Z,83.50
2017-12-08T08:44:58.013Z,83.70
2017-12-08T08:47:30.914Z,83.70
2017-12-08T08:50:03.862Z,83.60
2017-12-08T08:52:37.620Z,83.20
2017-12-08T08:55:11.812Z,83.20
2017-12-08T08:57:44.426Z,83.40
2017-12-08T09:00:17.068Z,83.40
2017-12-08T09:02:49.841Z,83.30
2017-12-08T09:05:23.080Z,83.30
2017-12-08T09:07:55.760Z,83.50
2017-12-08T09:10:28.604Z,83.50
2017-12-08T09:13:01.186Z,83.30
2017-12-08T09:15:33.900Z,83.20
2017-12-08T09:18:06.480Z,83.00
2017-12-08T09:20:39.732Z,83.30
2017-12-08T09:23:12.376Z,83.20
2017-12-08T09:25:44.885Z,83.10
2017-12-08T09:28:18.430Z,83.20
2017-12-08T09:30:51.552Z,83.40
2017-12-08T09:33:25.039Z,83.40
2017-12-08T09:35:58.557Z,84.00
2017-12-08T09:38:31.286Z,83.20
2017-12-08T09:41:03.820Z,81.30
2017-12-08T09:43:36.297Z,79.60
2017-12-08T09:46:08.832Z,79.60
2017-12-08T09:48:42.244Z,79.50
2017-12-08T09:51:15.028Z,80.00
2017-12-08T09:53:48.274Z,80.20
2017-12-08T09:56:20.665Z,80.40
2017-12-08T09:58:53.209Z,80.50
2017-12-08T10:01:26.841Z,80.80
2017-12-08T10:03:59.537Z,80.70
2017-12-08T10:06:32.626Z,80.90
2017-12-08T10:09:05.521Z,81.00
2017-12-08T10:11:38.377Z,81.20
2017-12-08T10:14:10.916Z,81.60
2017-12-08T10:16:43.760Z,82.10
2017-12-08T10:19:16.476Z,82.00
2017-12-08T10:21:48.901Z,81.80
2017-12-08T10:24:22.254Z,81.60
2017-12-08T10:26:55.467Z,81.80
2017-12-08T10:29:28.044Z,81.90
2017-12-08T10:32:00.516Z,81.20
2017-12-08T10:34:33.299Z,81.70
2017-12-08T10:37:06.546Z,81.80
2017-12-08T10:39:39.946Z,82.00
2017-12-08T10:42:12.874Z,81.90
2017-12-08T10:44:46.969Z,81.90
2017-12-08T10:47:19.679Z,81.90
2017-12-08T10:49:52.888Z,81.70
2017-12-08T10:52:25.720Z,81.70
2017-12-08T10:54:58.906Z,82.00
2017-12-08T10:57:31.672Z,82.00
2017-12-08T11:00:04.337Z,81.70
2017-12-08T11:02:37.211Z,81.50
2017-12-08T11:05:09.606Z,81.10
2017-12-08T11:07:42.186Z,81.20
2017-12-08T11:10:15.551Z,80.90
2017-12-08T11:12:48.333Z,81.00
2017-12-08T11:15:21.415Z,81.10
2017-12-08T11:17:54.556Z,81.50
2017-12-08T11:20:27.512Z,81.40
2017-12-08T11:23:00.125Z,81.30
2017-12-08T11:25:33.092Z,81.30
2017-12-08T11:28:06.452Z,81.20
2017-12-08T11:30:38.910Z,81.70
2017-12-08T11:33:12.256Z,80.70
2017-12-08T11:35:45.736Z,80.90
2017-12-08T11:38:19.132Z,81.00
2017-12-08T11:40:51.999Z,81.00
2017-12-08T11:43:24.674Z,80.80
2017-12-08T11:45:57.233Z,80.90
2017-12-08T11:48:29.690Z,80.50
2017-12-08T11:51:02.208Z,80.50
2017-12-08T11:53:35.497Z,80.20
2017-12-08T11:56:08.425Z,80.20
2017-12-08T11:58:41.771Z,80.10
2017-12-08T12:01:15.026Z,79.50
2017-12-08T12:03:48.227Z,79.60
2017-12-08T12:06:20.847Z,79.60
2017-12-08T12:08:54.109Z,79.70
2017-12-08T12:11:27.088Z,79.70
2017-12-08T12:13:59.661Z,79.70
2017-12-08T12:16:32.469Z,79.70
2017-12-08T12:19:04.960Z,79.80
2017-12-08T12:21:37.408Z,80.10
2017-12-08T12:24:11.180Z,80.40
2017-12-08T12:26:44.514Z,80.40
2017-12-08T12:29:16.860Z,81.10
2017-12-08T12:31:50.058Z,80.90
2017-12-08T12:34:22.798Z,80.90
2017-12-08T12:36:56.154Z,81.20
2017-12-08T12:39:28.786Z,81.40
2017-12-08T12:42:02.328Z,81.40
2017-12-08T12:44:35.183Z,81.50
2017-12-08T12:47:07.852Z,81.50
2017-12-08T12:49:40.482Z,81.60
2017-12-08T12:52:12.951Z,81.80
2017-12-08T12:54:45.411Z,81.90
2017-12-08T12:57:18.772Z,81.90
2017-12-08T12:59:51.959Z,81.80
2017-12-08T13:02:24.864Z,81.80
2017-12-08T13:04:57.336Z,82.40
2017-12-08T13:07:30.036Z,81.60
2017-12-08T13:10:03.399Z,81.70
2017-12-08T13:12:35.800Z,81.80
2017-12-08T13:15:08.229Z,82.10
2017-12-08T13:17:40.745Z,82.30
2017-12-08T13:20:13.368Z,82.30
2017-12-08T13:22:46.612Z,82.40
2017-12-08T13:25:19.248Z,82.80
2017-12-08T13:27:53.054Z,82.90
2017-12-08T13:30:25.742Z,82.90
2017-12-08T13:32:58.850Z,82.90
2017-12-08T13:35:31.650Z,82.90
2017-12-08T13:38:05.436Z,83.30
2017-12-08T13:40:38.616Z,83.50
2017-12-08T13:43:12.205Z,83.50
2017-12-08T13:45:45.191Z,83.50
2017-12-08T13:48:17.669Z,83.50
2017-12-08T13:50:50.068Z,83.60
2017-12-08T13:53:41.095Z,83.40
2017-12-08T13:56:32.800Z,83.40
2017-12-08T13:59:06.193Z,83.00
2017-12-08T14:01:38.662Z,83.00
2017-12-08T14:04:11.099Z,83.00
2017-12-08T14:06:44.424Z,82.60
2017-12-08T14:09:17.213Z,82.30
2017-12-08T14:11:51.086Z,82.10
2017-12-08T14:14:24.197Z,82.10
2017-12-08T14:16:57.303Z,81.90
2017-12-08T14:19:30.067Z,81.70
2017-12-08T14:22:04.213Z,81.60
2017-12-08T14:24:37.528Z,80.80
2017-12-08T14:27:10.357Z,81.30
2017-12-08T14:29:43.849Z,81.30
2017-12-08T14:32:16.576Z,81.20
2017-12-08T14:34:48.996Z,81.40
2017-12-08T14:37:22.411Z,82.00
2017-12-08T14:39:55.164Z,82.00
2017-12-08T14:42:27.639Z,82.40
2017-12-08T14:45:00.079Z,83.30
2017-12-08T14:47:32.635Z,82.60
2017-12-08T14:50:06.395Z,82.50
2017-12-08T14:52:38.850Z,82.50
2017-12-08T14:55:11.776Z,82.50
2017-12-08T14:57:45.099Z,82.50
2017-12-08T15:00:17.734Z,82.50
2017-12-08T15:02:50.179Z,82.40
2017-12-08T15:05:22.772Z,82.70
2017-12-08T15:07:55.452Z,82.90
2017-12-08T15:10:28.174Z,83.00
2017-12-08T15:13:02.354Z,83.20
2017-12-08T15:15:35.145Z,83.20
2017-12-08T15:18:07.703Z,83.20
2017-12-08T15:20:40.477Z,82.90
2017-12-08T15:23:13.778Z,82.80
2017-12-08T15:25:46.392Z,82.80
2017-12-08T15:28:18.837Z,82.60
2017-12-08T15:30:52.398Z,82.50
2017-12-08T15:33:25.170Z,82.50
2017-12-08T15:35:57.715Z,82.70
2017-12-08T15:38:30.956Z,82.70
2017-12-08T15:41:03.530Z,82.40
2017-12-08T15:43:36.735Z,82.90
2017-12-08T15:46:09.500Z,82.80
2017-12-08T15:48:41.952Z,83.10
2017-12-08T15:51:14.404Z,83.40
2017-12-08T15:53:48.594Z,82.00
2017-12-08T15:56:21.235Z,82.00
2017-12-08T15:58:54.300Z,82.00
2017-12-08T16:01:27.202Z,81.70
2017-12-08T16:04:00.018Z,81.20
2017-12-08T16:06:32.634Z,80.70
2017-12-08T16:09:05.296Z,80.80
2017-12-08T16:11:37.991Z,80.40
2017-12-08T16:14:10.546Z,80.40
2017-12-08T16:16:43.864Z,80.10
2017-12-08T16:19:16.713Z,80.10
2017-12-08T16:21:49.256Z,80.30
2017-12-08T16:24:21.730Z,80.40
2017-12-08T16:26:54.951Z,80.80
2017-12-08T16:29:27.596Z,80.80
2017-12-08T16:32:00.401Z,79.00
2017-12-08T16:34:33.308Z,79.60
2017-12-08T16:37:06.526Z,78.80
2017-12-08T16:39:39.831Z,79.30
2017-12-08T16:42:12.651Z,79.30
2017-12-08T16:44:46.034Z,78.80
2017-12-08T16:47:19.428Z,79.20
2017-12-08T16:49:52.386Z,79.00
2017-12-08T16:52:25.764Z,79.60
2017-12-08T16:54:58.389Z,78.60
2017-12-08T16:57:31.049Z,78.70
2017-12-08T17:00:04.521Z,80.00
2017-12-08T17:02:37.378Z,80.00
2017-12-08T17:05:09.956Z,78.80
2017-12-08T17:07:42.512Z,79.70
2017-12-08T17:10:15.250Z,79.80
2017-12-08T17:12:48.992Z,80.00
2017-12-08T17:15:22.230Z,79.90
2017-12-08T17:17:55.181Z,79.80
2017-12-08T17:20:27.890Z,79.60
2017-12-08T17:23:00.476Z,79.50
2017-12-08T17:25:33.165Z,79.70
2017-12-08T17:28:06.405Z,79.70
2017-12-08T17:30:39.081Z,79.90
2017-12-08T17:33:11.508Z,80.00
2017-12-08T17:35:51.860Z,79.90
2017-12-08T17:38:24.732Z,79.90
2017-12-08T17:40:58.061Z,80.00
2017-12-08T17:43:30.553Z,79.90
2017-12-08T17:46:03.158Z,80.00
2017-12-08T17:48:35.796Z,79.90
2017-12-08T17:51:08.324Z,80.50
2017-12-08T17:53:40.941Z,79.70
2017-12-08T17:56:13.341Z,79.90
2017-12-08T17:58:46.066Z,79.40
2017-12-08T18:01:18.815Z,79.70
2017-12-08T18:03:51.286Z,80.10
2017-12-08T18:06:24.551Z,79.50
2017-12-08T18:08:57.223Z,79.70
2017-12-08T18:11:30.714Z,79.40
2017-12-08T18:14:03.827Z,79.40
2017-12-08T18:16:36.486Z,79.40
2017-12-08T18:19:08.988Z,80.00
2017-12-08T18:21:42.837Z,79.20
2017-12-08T18:24:15.342Z,79.20
2017-12-08T18:26:48.244Z,78.90
2017-12-08T18:29:21.391Z,78.60
2017-12-08T18:31:54.252Z,78.60
2017-12-08T18:34:27.495Z,78.20
2017-12-08T18:37:00.518Z,78.20
2017-12-08T18:39:33.981Z,77.40
2017-12-08T18:42:08.064Z,76.70
2017-12-08T18:44:41.305Z,75.90
2017-12-08T18:47:14.699Z,76.20
2017-12-08T18:49:47.985Z,76.30
2017-12-08T18:52:21.363Z,76.70
2017-12-08T18:54:54.460Z,76.70
2017-12-08T18:57:30.013Z,77.00
2017-12-08T19:00:05.541Z,77.00
2017-12-08T19:02:39.567Z,76.70
2017-12-08T19:05:13.579Z,76.90
2017-12-08T19:07:49.557Z,76.90
2017-12-08T19:10:25.069Z,77.10
2017-12-08T19:13:00.898Z,77.20
2017-12-08T19:15:35.965Z,77.50
2017-12-08T19:18:11.537Z,77.50
2017-12-08T19:20:46.969Z,77.50
2017-12-08T19:23:23.834Z,77.80
2017-12-08T19:25:59.511Z,77.60
2017-12-08T19:28:34.606Z,77.70
2017-12-08T19:31:11.073Z,77.70
2017-12-08T19:33:45.517Z,77.70
2017-12-08T19:36:20.487Z,77.80
2017-12-08T19:38:55.482Z,77.80
2017-12-08T19:41:30.473Z,77.90
2017-12-08T19:44:06.287Z,78.10
2017-12-08T19:46:41.719Z,78.30
2017-12-08T19:49:17.524Z,78.30
2017-12-08T19:51:53.830Z,78.80
2017-12-08T19:54:29.562Z,78.20
2017-12-08T19:57:05.304Z,78.10
2017-12-08T19:59:41.170Z,78.10
2017-12-08T20:02:16.719Z,77.60
2017-12-08T20:04:52.432Z,77.50
2017-12-08T20:07:28.160Z,77.90
2017-12-08T20:10:03.443Z,76.90
2017-12-08T20:12:38.776Z,76.70
2017-12-08T20:15:14.418Z,76.60
2017-12-08T20:17:49.998Z,76.50
2017-12-08T20:20:25.248Z,76.50
2017-12-08T20:23:00.813Z,76.50
2017-12-08T20:25:36.903Z,76.30
2017-12-08T20:28:12.348Z,76.60
2017-12-08T20:30:48.386Z,76.60
2017-12-08T20:33:23.677Z,76.50
2017-12-08T20:35:59.111Z,76.50
2017-12-08T20:38:34.266Z,76.80
2017-12-08T20:41:09.771Z,76.40
2017-12-08T20:43:46.290Z,76.30
2017-12-08T20:46:22.274Z,77.00
2017-12-08T20:48:58.254Z,77.20
2017-12-08T20:51:33.624Z,77.00
2017-12-08T20:54:08.450Z,77.00
2017-12-08T20:56:44.880Z,76.70
2017-12-08T20:59:20.708Z,76.60
2017-12-08T21:01:55.858Z,76.90
2017-12-08T21:04:32.004Z,76.50
2017-12-08T21:07:07.516Z,76.50
2017-12-08T21:09:43.060Z,76.60
2017-12-08T21:12:18.307Z,77.20
2017-12-08T21:14:53.974Z,77.00
2017-12-08T21:17:29.904Z,77.30
2017-12-08T21:20:05.784Z,77.30
2017-12-08T21:22:41.447Z,77.90
2017-12-08T21:25:17.577Z,78.00
2017-12-08T21:27:52.900Z,77.90
2017-12-08T21:30:29.683Z,77.10
2017-12-08T21:33:05.160Z,76.30
2017-12-08T21:35:40.745Z,76.50
2017-12-08T21:38:15.932Z,76.50
2017-12-08T21:40:51.487Z,77.00
2017-12-08T21:43:26.775Z,77.30
2017-12-08T21:46:02.866Z,77.00
2017-12-08T21:48:38.221Z,76.70
2017-12-08T21:51:14.020Z,76.40
2017-12-08T21:53:50.033Z,76.50
2017-12-08T21:56:25.700Z,76.30
2017-12-08T21:59:00.795Z,76.20
2017-12-08T22:01:36.487Z,76.10
2017-12-08T22:04:11.477Z,75.90
2017-12-08T22:06:46.321Z,75.70
2017-12-08T22:09:21.256Z,76.10
2017-12-08T22:11:56.391Z,75.60
2017-12-08T22:14:30.295Z,75.70
2017-12-08T22:17:04.201Z,75.90
2017-12-08T22:19:37.961Z,75.20
2017-12-08T22:22:11.160Z,75.30
2017-12-08T22:24:44.894Z,75.50
2017-12-08T22:27:18.213Z,75.80
2017-12-08T22:29:52.292Z,75.60
2017-12-08T22:32:25.295Z,75.80
2017-12-08T22:34:57.784Z,75.90
2017-12-08T22:37:31.156Z,75.40
2017-12-08T22:40:04.434Z,75.90
2017-12-08T22:42:37.704Z,76.20
2017-12-08T22:45:10.220Z,76.30
2017-12-08T22:47:43.676Z,76.00
2017-12-08T22:50:16.397Z,75.80
2017-12-08T22:52:48.990Z,75.80
2017-12-08T22:55:23.176Z,75.70
2017-12-08T22:57:55.894Z,75.80
2017-12-08T23:00:28.659Z,76.00
2017-12-08T23:03:02.148Z,76.30
2017-12-08T23:05:34.907Z,76.30
2017-12-08T23:08:07.812Z,76.20
2017-12-08T23:10:40.670Z,76.20
2017-12-08T23:13:13.884Z,76.40
2017-12-08T23:15:47.320Z,76.50
2017-12-08T23:18:20.373Z,76.70
2017-12-08T23:20:53.928Z,77.20
2017-12-08T23:23:26.751Z,77.20
2017-12-08T23:25:59.174Z,77.10
2017-12-08T23:28:31.816Z,77.40
2017-12-08T23:31:05.937Z,77.40
2017-12-08T23:33:38.976Z,77.30
2017-12-08T23:36:11.374Z,77.20
2017-12-08T23:38:44.671Z,77.30
2017-12-08T23:41:17.174Z,77.30
2017-12-08T23:43:49.747Z,76.30
2017-12-08T23:46:22.273Z,75.80
2017-12-08T23:48:54.711Z,75.70
2017-12-08T23:51:28.006Z,76.10
2017-12-08T23:54:00.798Z,76.00
2017-12-08T23:56:33.317Z,76.00
2017-12-08T23:59:06.444Z,76.10
